Time;durP1;ratioP1;P1;durP2;ratioP2;P2;SDS_P1;SDS_P2;PMS_P1;PMS_P2;Temp;Humidity;BMP_temperature;BMP_pressure;BME280_temperature;BME280_humidity;BME280_pressure;Samples;Min_cycle;Max_cycle;Signal;HPM_P1;HPM_P2
2021/07/19 00:00:31;;;;;;;7.07;3.63;;;21.80;65.10;;;;;;5109336;28;20191;-89
2021/07/19 00:02:57;;;;;;;4.97;4.07;;;21.70;64.70;;;;;;5098917;28;20187;-89
2021/07/19 00:05:26;;;;;;;6.07;4.43;;;21.60;64.70;;;;;;5104165;28;20452;-88
2021/07/19 00:07:52;;;;;;;8.27;4.47;;;21.60;64.90;;;;;;5105196;28;20183;-88
2021/07/19 00:10:20;;;;;;;6.13;4.63;;;21.60;65.00;;;;;;5096766;28;20653;-88
2021/07/19 00:12:47;;;;;;;6.03;5.00;;;21.60;65.00;;;;;;5096268;28;20430;-89
2021/07/19 00:15:17;;;;;;;4.37;3.80;;;21.60;65.00;;;;;;5096624;28;20433;-88
2021/07/19 00:17:44;;;;;;;6.03;4.47;;;21.50;65.20;;;;;;5098541;28;20560;-88
2021/07/19 00:20:11;;;;;;;4.30;3.90;;;21.40;65.20;;;;;;5096261;28;20182;-88
2021/07/19 00:22:37;;;;;;;7.83;4.50;;;21.40;65.40;;;;;;5094501;28;20191;-88
2021/07/19 00:25:06;;;;;;;6.90;4.57;;;21.40;65.40;;;;;;5095186;28;20460;-88
2021/07/19 00:27:32;;;;;;;4.75;3.97;;;21.40;65.70;;;;;;5094428;28;20410;-87
2021/07/19 00:29:58;;;;;;;8.10;3.87;;;21.30;65.30;;;;;;5107195;28;20176;-89
2021/07/19 00:32:23;;;;;;;6.50;4.10;;;21.40;65.10;;;;;;5113793;28;20219;-87
2021/07/19 00:34:49;;;;;;;5.27;4.77;;;21.50;65.20;;;;;;5102120;28;20545;-88
2021/07/19 00:37:15;;;;;;;10.67;4.43;;;21.40;64.80;;;;;;5113255;28;20246;-88
2021/07/19 00:39:41;;;;;;;10.00;4.67;;;21.30;64.80;;;;;;5114153;28;20195;-89
2021/07/19 00:42:06;;;;;;;11.10;5.33;;;21.30;65.30;;;;;;5108016;28;20203;-88
2021/07/19 00:44:32;;;;;;;7.43;5.10;;;21.30;65.20;;;;;;5105435;28;20215;-88
2021/07/19 00:46:58;;;;;;;5.03;4.53;;;21.20;65.40;;;;;;5106821;28;20418;-88
2021/07/19 00:49:30;;;;;;;4.73;4.33;;;21.30;65.70;;;;;;5104602;28;20421;-88
2021/07/19 00:51:55;;;;;;;6.38;5.18;;;21.20;65.80;;;;;;5102333;28;20199;-88
2021/07/19 00:54:24;;;;;;;7.00;5.90;;;21.20;66.00;;;;;;5096536;28;20241;-88
2021/07/19 00:56:52;;;;;;;5.95;5.20;;;21.10;66.20;;;;;;5108125;28;20191;-88
2021/07/19 00:59:21;;;;;;;6.55;5.53;;;21.10;66.60;;;;;;5099786;28;20176;-88
2021/07/19 01:01:48;;;;;;;5.55;5.05;;;21.00;66.90;;;;;;5094803;28;20267;-89
2021/07/19 01:04:17;;;;;;;8.35;5.15;;;20.90;67.30;;;;;;5094516;28;20206;-88
2021/07/19 01:06:44;;;;;;;6.03;5.18;;;20.90;67.40;;;;;;5095577;28;20507;-88
2021/07/19 01:09:10;;;;;;;7.95;5.05;;;20.90;67.70;;;;;;5094085;28;20172;-88
2021/07/19 01:11:36;;;;;;;8.77;5.70;;;20.80;68.00;;;;;;5094777;28;20285;-88
2021/07/19 01:14:05;;;;;;;10.73;5.23;;;20.80;68.50;;;;;;5108835;28;20405;-88
2021/07/19 01:16:31;;;;;;;6.05;5.45;;;20.80;68.30;;;;;;5093714;28;20196;-88
2021/07/19 01:18:56;;;;;;;5.40;4.80;;;20.90;68.40;;;;;;5094824;28;20183;-88
2021/07/19 01:21:50;;;;;;;9.27;5.97;;;20.90;68.50;;;;;;5092978;28;20611;-88
2021/07/19 01:24:47;;;;;;;7.80;5.18;;;20.90;68.40;;;;;;5094507;28;20449;-88
2021/07/19 01:27:48;;;;;;;7.47;5.70;;;21.00;68.30;;;;;;5093569;28;20255;-88
2021/07/19 01:30:14;;;;;;;6.85;5.38;;;20.80;68.70;;;;;;5093887;28;20171;-88
2021/07/19 01:32:43;;;;;;;10.75;5.13;;;20.90;69.00;;;;;;5097164;28;20202;-88
2021/07/19 01:35:11;;;;;;;9.85;6.03;;;20.90;69.10;;;;;;5097224;28;20267;-88
2021/07/19 01:37:39;;;;;;;6.93;5.85;;;20.80;69.40;;;;;;5096907;28;20243;-88
2021/07/19 01:40:14;;;;;;;9.02;6.80;;;20.70;69.80;;;;;;5097369;28;20247;-88
2021/07/19 01:43:04;;;;;;;10.65;5.90;;;20.70;69.90;;;;;;5096119;28;20589;-87
2021/07/19 01:45:30;;;;;;;7.28;5.55;;;20.80;69.90;;;;;;5096666;28;20179;-88
2021/07/19 01:47:56;;;;;;;8.80;7.35;;;20.80;70.00;;;;;;5096869;28;20187;-88
2021/07/19 01:50:22;;;;;;;7.83;6.10;;;20.70;70.20;;;;;;5096503;28;20172;-88
2021/07/19 01:52:49;;;;;;;11.40;7.40;;;20.60;70.30;;;;;;5096785;28;20441;-88
2021/07/19 01:55:15;;;;;;;9.77;7.20;;;20.50;70.60;;;;;;5110858;28;20590;-88
2021/07/19 01:57:41;;;;;;;9.48;6.15;;;20.60;70.80;;;;;;5096581;28;20734;-88
2021/07/19 02:00:08;;;;;;;8.70;6.10;;;20.50;71.60;;;;;;5097616;28;20211;-87
2021/07/19 02:02:38;;;;;;;6.82;6.00;;;20.50;71.00;;;;;;5096489;28;20520;-88
2021/07/19 02:05:11;;;;;;;11.00;7.07;;;20.50;71.20;;;;;;5097114;28;20662;-88
2021/07/19 02:07:38;;;;;;;13.65;6.90;;;20.40;71.10;;;;;;5096050;28;20183;-88
2021/07/19 02:10:06;;;;;;;7.18;6.45;;;20.50;71.30;;;;;;5097671;28;20195;-88
2021/07/19 02:12:35;;;;;;;7.50;6.07;;;20.50;71.30;;;;;;5097055;28;20184;-88
2021/07/19 02:15:01;;;;;;;11.75;7.10;;;20.50;71.40;;;;;;5095928;28;20280;-88
2021/07/19 02:17:29;;;;;;;9.15;7.72;;;20.50;71.40;;;;;;5096537;28;20172;-88
2021/07/19 02:19:55;;;;;;;7.22;6.53;;;20.30;71.80;;;;;;5097398;28;20176;-88
2021/07/19 02:22:22;;;;;;;11.37;6.23;;;20.40;72.10;;;;;;5108931;28;20196;-88
2021/07/19 02:24:57;;;;;;;10.70;6.85;;;20.40;71.90;;;;;;5099938;28;20446;-88
2021/07/19 02:27:24;;;;;;;10.18;7.30;;;20.40;71.80;;;;;;5097402;28;20175;-88
2021/07/19 02:29:50;;;;;;;10.55;7.35;;;20.50;71.70;;;;;;5097183;28;20180;-88
2021/07/19 02:32:17;;;;;;;11.23;7.50;;;20.40;71.70;;;;;;5096559;28;20207;-88
2021/07/19 02:34:43;;;;;;;10.52;7.30;;;20.40;71.80;;;;;;5097252;28;20223;-88
2021/07/19 02:37:09;;;;;;;9.15;6.85;;;20.30;71.90;;;;;;5097096;28;20180;-88
2021/07/19 02:39:36;;;;;;;11.00;7.45;;;20.30;72.10;;;;;;5098338;28;20181;-88
2021/07/19 02:42:03;;;;;;;10.98;8.35;;;20.20;72.40;;;;;;5096345;28;20207;-88
2021/07/19 02:44:30;;;;;;;10.15;7.25;;;20.10;72.90;;;;;;5097268;28;20210;-89
2021/07/19 02:46:56;;;;;;;10.20;7.50;;;20.20;72.90;;;;;;5098651;28;20179;-88
2021/07/19 02:49:22;;;;;;;9.10;6.82;;;20.10;73.20;;;;;;5098265;28;20214;-87
2021/07/19 02:51:51;;;;;;;8.88;6.57;;;20.10;73.30;;;;;;5104080;28;20247;-87
2021/07/19 02:54:19;;;;;;;11.82;7.65;;;19.90;73.40;;;;;;5102632;28;20209;-88
2021/07/19 02:56:47;;;;;;;16.75;8.70;;;20.00;73.60;;;;;;5096851;28;20180;-88
2021/07/19 02:59:14;;;;;;;8.45;7.55;;;20.00;73.60;;;;;;5095314;28;20669;-88
2021/07/19 03:01:41;;;;;;;13.10;7.90;;;20.00;73.80;;;;;;5094160;28;20204;-88
2021/07/19 03:04:07;;;;;;;10.55;7.60;;;20.00;74.00;;;;;;5095013;28;20260;-88
2021/07/19 03:06:36;;;;;;;10.73;7.47;;;19.90;74.10;;;;;;5095313;28;20176;-88
2021/07/19 03:09:04;;;;;;;12.35;7.68;;;20.00;74.00;;;;;;5094908;28;20314;-88
2021/07/19 03:11:39;;;;;;;9.57;6.75;;;19.90;74.20;;;;;;5094580;28;20284;-88
2021/07/19 03:14:10;;;;;;;12.98;8.52;;;19.90;74.40;;;;;;5094692;28;20179;-89
2021/07/19 03:16:36;;;;;;;9.40;6.93;;;19.80;74.40;;;;;;5094955;28;20191;-88
2021/07/19 03:19:07;;;;;;;14.68;7.45;;;19.80;74.70;;;;;;5094923;28;20179;-88
2021/07/19 03:21:35;;;;;;;16.73;10.02;;;19.70;74.70;;;;;;5094563;28;20223;-88
2021/07/19 03:24:03;;;;;;;10.85;8.20;;;19.70;75.30;;;;;;5094870;28;20222;-88
2021/07/19 03:26:29;;;;;;;11.35;8.18;;;19.70;75.30;;;;;;5094940;28;20184;-88
2021/07/19 03:28:56;;;;;;;13.98;7.80;;;19.70;75.50;;;;;;5110568;28;20275;-88
2021/07/19 03:31:23;;;;;;;9.20;8.27;;;19.70;75.50;;;;;;5094881;28;20204;-88
2021/07/19 03:33:50;;;;;;;11.88;7.97;;;19.60;75.50;;;;;;5094775;28;20317;-88
2021/07/19 03:36:17;;;;;;;14.52;8.82;;;19.60;75.60;;;;;;5094554;28;20183;-88
2021/07/19 03:38:44;;;;;;;8.82;7.50;;;19.70;75.70;;;;;;5094181;28;20176;-88
2021/07/19 03:41:13;;;;;;;12.48;8.63;;;19.60;75.50;;;;;;5095108;28;20195;-89
2021/07/19 03:43:40;;;;;;;12.60;8.45;;;19.60;75.60;;;;;;5094538;28;20221;-88
2021/07/19 03:46:06;;;;;;;12.52;8.85;;;19.60;75.60;;;;;;5094005;28;20168;-88
2021/07/19 03:48:34;;;;;;;12.10;7.80;;;19.60;75.60;;;;;;5097090;28;20202;-88
2021/07/19 03:51:00;;;;;;;17.15;8.68;;;19.50;75.80;;;;;;5106129;28;20194;-88
2021/07/19 03:53:26;;;;;;;9.55;7.90;;;19.60;75.70;;;;;;5093633;28;20266;-88
2021/07/19 03:55:53;;;;;;;12.18;7.75;;;19.70;75.60;;;;;;5094379;28;20182;-88
2021/07/19 03:58:19;;;;;;;11.88;7.80;;;19.60;75.40;;;;;;5094197;28;20175;-88
2021/07/19 04:00:45;;;;;;;12.00;8.40;;;19.60;75.40;;;;;;5093764;28;20183;-88
2021/07/19 04:03:33;;;;;;;12.43;7.95;;;19.60;75.40;;;;;;5095392;28;20195;-88
2021/07/19 04:06:01;;;;;;;18.15;7.95;;;19.60;75.60;;;;;;5093962;28;20171;-88
2021/07/19 04:08:32;;;;;;;10.52;7.75;;;19.60;76.20;;;;;;5094370;28;20190;-89
2021/07/19 04:11:01;;;;;;;10.63;8.30;;;19.60;75.30;;;;;;5075062;28;20176;-88
2021/07/19 04:13:28;;;;;;;15.48;8.95;;;19.70;75.10;;;;;;5074057;28;20263;-88
2021/07/19 04:15:54;;;;;;;10.55;7.40;;;19.60;75.10;;;;;;5073630;28;20188;-88
2021/07/19 04:18:23;;;;;;;11.30;7.45;;;19.60;75.40;;;;;;5073889;28;20180;-88
2021/07/19 04:20:50;;;;;;;14.32;8.40;;;19.40;75.60;;;;;;5075008;28;20230;-88
2021/07/19 04:23:17;;;;;;;15.40;8.52;;;19.40;75.80;;;;;;5073434;28;20219;-88
2021/07/19 04:25:46;;;;;;;12.98;8.05;;;19.50;75.90;;;;;;5073200;28;20196;-88
2021/07/19 04:28:19;;;;;;;20.33;8.60;;;19.50;75.90;;;;;;5073388;28;20632;-88
2021/07/19 04:30:46;;;;;;;12.60;7.50;;;19.40;75.80;;;;;;5074524;28;20157;-88
2021/07/19 04:33:16;;;;;;;15.68;9.23;;;19.50;76.00;;;;;;5074893;28;20172;-88
2021/07/19 04:35:45;;;;;;;12.70;7.57;;;19.50;75.80;;;;;;5087963;28;20175;-88
2021/07/19 04:38:15;;;;;;;15.95;8.30;;;19.50;75.70;;;;;;5103003;28;20199;-88
2021/07/19 04:40:44;;;;;;;12.85;8.77;;;19.50;75.50;;;;;;5098468;28;20180;-88
2021/07/19 04:43:10;;;;;;;10.80;7.53;;;19.60;75.30;;;;;;5096041;28;20210;-88
2021/07/19 04:45:36;;;;;;;12.90;8.00;;;19.70;75.30;;;;;;5096944;28;20176;-88
2021/07/19 04:48:02;;;;;;;15.90;7.87;;;19.80;74.80;;;;;;5106797;28;20183;-88
2021/07/19 04:50:27;;;;;;;10.17;7.50;;;19.80;74.70;;;;;;5094817;28;20178;-87
2021/07/19 04:52:53;;;;;;;11.93;6.70;;;19.80;74.50;;;;;;5095709;28;20453;-88
2021/07/19 04:55:21;;;;;;;15.43;9.17;;;19.80;74.40;;;;;;5095302;28;20553;-88
2021/07/19 04:57:51;;;;;;;10.27;8.15;;;19.80;74.30;;;;;;5094668;28;20226;-88
2021/07/19 05:00:18;;;;;;;9.60;7.25;;;19.80;74.20;;;;;;5092604;28;20183;-87
2021/07/19 05:02:45;;;;;;;14.18;8.00;;;19.80;74.30;;;;;;5093257;28;20192;-88
2021/07/19 05:05:14;;;;;;;11.73;9.23;;;19.80;74.20;;;;;;5093293;28;20693;-88
2021/07/19 05:07:43;;;;;;;15.02;8.73;;;19.80;74.00;;;;;;5097412;28;20175;-88
2021/07/19 05:10:11;;;;;;;10.55;8.48;;;19.90;74.20;;;;;;5097609;28;20175;-88
2021/07/19 05:12:43;;;;;;;9.85;8.25;;;19.80;74.10;;;;;;5097131;28;20194;-88
2021/07/19 05:15:12;;;;;;;12.30;8.00;;;19.80;74.20;;;;;;5098844;28;20203;-88
2021/07/19 05:17:40;;;;;;;14.10;9.45;;;19.90;74.80;;;;;;5098869;28;20525;-88
2021/07/19 05:20:13;;;;;;;11.45;7.70;;;20.00;74.00;;;;;;5100395;28;20195;-88
2021/07/19 05:22:52;;;;;;;11.40;7.90;;;20.10;73.60;;;;;;5098701;28;20203;-87
2021/07/19 05:25:32;;;;;;;11.93;7.68;;;20.30;73.10;;;;;;5098566;28;20214;-87
2021/07/19 05:27:57;;;;;;;12.48;8.30;;;20.50;72.40;;;;;;5097665;28;20176;-88
2021/07/19 05:30:23;;;;;;;12.63;7.93;;;21.10;71.60;;;;;;5097746;28;20190;-88
2021/07/19 05:32:50;;;;;;;11.80;6.40;;;22.00;68.10;;;;;;5097875;28;20202;-87
2021/07/19 05:35:17;;;;;;;7.67;6.67;;;22.70;65.80;;;;;;5097590;28;20172;-88
2021/07/19 05:37:43;;;;;;;11.50;6.23;;;23.70;62.50;;;;;;5093596;28;20411;-88
2021/07/19 05:40:10;;;;;;;17.27;6.40;;;24.60;59.00;;;;;;5077144;28;20418;-89
2021/07/19 05:42:36;;;;;;;7.07;5.93;;;25.60;55.90;;;;;;5079222;28;20430;-88
2021/07/19 05:45:02;;;;;;;8.60;5.33;;;26.50;52.90;;;;;;5099247;28;20470;-89
2021/07/19 05:47:28;;;;;;;12.47;6.90;;;27.20;50.20;;;;;;5090090;28;20275;-89
2021/07/19 05:49:53;;;;;;;8.00;7.17;;;27.90;47.50;;;;;;5091194;28;20453;-88
2021/07/19 05:52:19;;;;;;;7.40;6.60;;;28.30;46.50;;;;;;5098075;28;20204;-88
2021/07/19 05:54:45;;;;;;;6.97;6.07;;;28.60;44.80;;;;;;5097141;28;20173;-88
2021/07/19 05:57:10;;;;;;;7.80;5.80;;;29.30;44.00;;;;;;5096770;28;20186;-89
2021/07/19 05:59:36;;;;;;;7.00;6.40;;;29.30;41.70;;;;;;5097619;28;20188;-89
2021/07/19 06:02:02;;;;;;;7.33;6.40;;;29.80;40.90;;;;;;5096103;28;20278;-88
2021/07/19 06:04:31;;;;;;;7.63;6.80;;;29.50;41.10;;;;;;5101147;28;20696;-89
2021/07/19 06:06:56;;;;;;;8.73;6.20;;;29.00;42.00;;;;;;5101920;28;20396;-87
2021/07/19 06:09:23;;;;;;;11.10;6.47;;;28.70;41.50;;;;;;5096400;28;20385;-88
2021/07/19 06:11:48;;;;;;;9.30;6.40;;;28.80;41.90;;;;;;5096241;28;20196;-87
2021/07/19 06:14:14;;;;;;;8.50;6.17;;;29.00;42.70;;;;;;5096259;28;20914;-87
2021/07/19 06:16:40;;;;;;;9.43;6.80;;;29.10;41.60;;;;;;5096448;28;20175;-88
2021/07/19 06:19:06;;;;;;;7.90;5.50;;;28.90;41.60;;;;;;5096324;28;20187;-87
2021/07/19 06:21:32;;;;;;;6.90;6.20;;;29.10;42.20;;;;;;5095670;28;20520;-88
2021/07/19 06:23:57;;;;;;;7.13;6.17;;;29.10;41.10;;;;;;5096152;28;20214;-87
2021/07/19 06:26:24;;;;;;;9.23;6.53;;;29.70;40.60;;;;;;5095903;28;20177;-88
2021/07/19 06:28:52;;;;;;;8.17;5.67;;;30.20;39.30;;;;;;5096234;28;20246;-87
2021/07/19 06:31:18;;;;;;;6.20;5.57;;;30.00;38.80;;;;;;5095888;28;20445;-88
2021/07/19 06:33:43;;;;;;;6.80;5.13;;;30.00;39.20;;;;;;5095979;28;20426;-89
2021/07/19 06:36:09;;;;;;;9.10;6.07;;;29.90;38.60;;;;;;5097449;28;20187;-89
2021/07/19 06:38:35;;;;;;;6.23;5.67;;;29.60;38.30;;;;;;5097346;28;20702;-89
2021/07/19 06:41:00;;;;;;;8.20;5.97;;;29.80;38.40;;;;;;5095068;28;20542;-89
2021/07/19 06:43:26;;;;;;;6.60;5.63;;;30.00;38.50;;;;;;5109361;28;20231;-89
2021/07/19 06:45:52;;;;;;;7.90;5.40;;;29.50;38.30;;;;;;5096840;28;20639;-89
2021/07/19 06:48:19;;;;;;;9.47;5.70;;;29.00;39.80;;;;;;5098186;28;20179;-89
2021/07/19 06:50:45;;;;;;;5.50;5.00;;;28.80;39.70;;;;;;5104371;28;20251;-89
2021/07/19 06:53:11;;;;;;;6.23;5.37;;;28.20;40.60;;;;;;5109677;28;20426;-89
2021/07/19 06:55:36;;;;;;;7.30;5.87;;;27.20;42.20;;;;;;5097613;28;20187;-88
2021/07/19 06:58:02;;;;;;;7.33;5.00;;;26.30;44.30;;;;;;5097257;28;20593;-88
2021/07/19 07:00:28;;;;;;;6.80;5.10;;;26.30;45.50;;;;;;5091948;28;20180;-88
2021/07/19 07:02:53;;;;;;;8.90;5.70;;;26.60;45.60;;;;;;5084530;28;20704;-88
2021/07/19 07:05:19;;;;;;;6.30;5.37;;;26.30;46.00;;;;;;5098713;28;20179;-88
2021/07/19 07:07:45;;;;;;;8.53;6.27;;;26.30;46.50;;;;;;5097620;28;20561;-88
2021/07/19 07:10:11;;;;;;;9.60;5.13;;;26.20;46.60;;;;;;5097199;28;20185;-88
2021/07/19 07:12:39;;;;;;;7.63;5.70;;;26.00;46.70;;;;;;5096583;28;20426;-88
2021/07/19 07:15:06;;;;;;;5.87;4.97;;;25.80;46.40;;;;;;5082754;28;20446;-88
2021/07/19 07:17:32;;;;;;;8.67;5.60;;;25.60;47.30;;;;;;5075272;28;20949;-87
2021/07/19 07:19:58;;;;;;;6.30;5.17;;;24.90;48.90;;;;;;5076186;28;20407;-87
2021/07/19 07:22:25;;;;;;;9.50;5.10;;;24.80;50.20;;;;;;5075796;28;20207;-88
2021/07/19 07:24:51;;;;;;;6.23;5.30;;;24.60;50.70;;;;;;5076619;28;20541;-88
2021/07/19 07:27:19;;;;;;;7.40;4.67;;;24.60;51.00;;;;;;5090840;28;20449;-88
2021/07/19 07:29:45;;;;;;;8.07;5.50;;;24.50;51.30;;;;;;5097141;28;20424;-88
2021/07/19 07:32:12;;;;;;;16.73;5.63;;;24.50;52.00;;;;;;5097116;28;20433;-88
2021/07/19 07:34:38;;;;;;;7.90;5.83;;;24.50;52.00;;;;;;5098147;28;20425;-88
2021/07/19 07:37:06;;;;;;;5.80;5.30;;;24.20;52.40;;;;;;5098126;28;20414;-88
2021/07/19 07:39:31;;;;;;;7.87;6.10;;;24.30;52.80;;;;;;5100958;28;20460;-88
2021/07/19 07:41:57;;;;;;;6.73;5.20;;;24.00;53.20;;;;;;5104312;28;20558;-87
2021/07/19 07:44:23;;;;;;;6.73;4.77;;;24.00;53.80;;;;;;5095332;28;20214;-88
2021/07/19 07:46:49;;;;;;;8.07;5.47;;;24.00;54.00;;;;;;5095389;28;20187;-87
2021/07/19 07:49:15;;;;;;;10.00;5.40;;;24.00;54.00;;;;;;5094974;28;20464;-89
2021/07/19 07:54:16;;;;;;;9.00;4.67;;;23.60;54.30;;;;;;5533769;22;20988;-85
2021/07/19 07:56:42;;;;;;;6.93;4.70;;;23.50;55.30;;;;;;4986801;28;20433;-85
2021/07/19 07:59:08;;;;;;;8.73;5.40;;;23.50;55.60;;;;;;4976048;28;20580;-86
2021/07/19 08:01:33;;;;;;;5.90;4.50;;;23.30;55.70;;;;;;4991133;28;20484;-85
2021/07/19 08:03:59;;;;;;;6.77;5.13;;;23.30;56.10;;;;;;4994119;28;20208;-85
2021/07/19 08:06:25;;;;;;;10.23;5.90;;;23.20;56.10;;;;;;4980731;28;20639;-85
2021/07/19 08:08:50;;;;;;;6.63;5.30;;;23.10;56.30;;;;;;4979991;28;20635;-85
2021/07/19 08:11:17;;;;;;;11.73;5.63;;;23.10;56.70;;;;;;4994175;28;20635;-85
2021/07/19 08:13:43;;;;;;;9.80;4.93;;;23.10;57.00;;;;;;4978337;28;20203;-86
2021/07/19 08:16:08;;;;;;;6.67;5.43;;;23.00;57.50;;;;;;4978973;28;20478;-85
2021/07/19 08:18:34;;;;;;;10.77;4.87;;;23.00;57.00;;;;;;4979060;28;20459;-86
2021/07/19 08:21:00;;;;;;;7.00;5.37;;;23.00;57.70;;;;;;4978808;28;20466;-85
2021/07/19 08:23:26;;;;;;;7.03;4.77;;;22.90;58.20;;;;;;4976456;28;20238;-85
2021/07/19 08:25:52;;;;;;;6.53;5.67;;;23.10;57.60;;;;;;4978266;28;20514;-85
2021/07/19 08:28:17;;;;;;;7.83;4.73;;;23.10;57.30;;;;;;5605329;22;21356;-91
2021/07/19 08:30:43;;;;;;;10.70;6.00;;;23.00;56.90;;;;;;4957653;28;20221;-92
2021/07/19 08:33:09;;;;;;;7.00;5.60;;;23.30;57.10;;;;;;4940158;29;20272;-92
2021/07/19 08:35:35;;;;;;;5.70;4.77;;;23.40;56.40;;;;;;4942733;29;20480;-92
2021/07/19 08:38:02;;;;;;;8.30;6.03;;;23.60;55.80;;;;;;4942848;29;20441;-92
2021/07/19 08:40:28;;;;;;;8.47;5.50;;;23.50;55.50;;;;;;4946328;29;20186;-92
2021/07/19 08:42:55;;;;;;;7.10;5.00;;;23.50;55.40;;;;;;4942456;29;20908;-92
2021/07/19 08:45:22;;;;;;;7.17;5.80;;;23.50;55.60;;;;;;4949101;28;20959;-92
2021/07/19 08:47:50;;;;;;;10.23;6.00;;;23.30;55.90;;;;;;4985599;28;20419;-92
2021/07/19 08:50:19;;;;;;;9.90;6.40;;;23.50;57.00;;;;;;4968721;28;20490;-92
2021/07/19 08:52:55;;;;;;;6.00;5.37;;;23.40;55.50;;;;;;4967107;28;20412;-92
2021/07/19 08:55:21;;;;;;;6.70;5.73;;;23.50;55.70;;;;;;4970890;28;20443;-92
2021/07/19 08:57:49;;;;;;;11.10;5.30;;;23.50;55.60;;;;;;4974481;28;20487;-91
2021/07/19 09:00:20;;;;;;;9.73;4.97;;;23.70;55.60;;;;;;4978543;28;20455;-94
2021/07/19 09:02:45;;;;;;;11.53;6.30;;;23.70;55.10;;;;;;4979110;28;20471;-93
2021/07/19 09:05:12;;;;;;;9.00;4.77;;;23.60;55.10;;;;;;4978895;28;20451;-91
2021/07/19 09:07:38;;;;;;;6.40;5.37;;;23.70;55.10;;;;;;4978744;28;20188;-92
2021/07/19 09:10:05;;;;;;;7.50;5.20;;;23.70;54.80;;;;;;4977226;28;20463;-94
2021/07/19 09:12:38;;;;;;;19.07;6.00;;;24.00;54.50;;;;;;4963405;28;21008;-94
2021/07/19 09:15:10;;;;;;;6.27;5.63;;;24.20;54.20;;;;;;4963453;28;20426;-92
2021/07/19 09:17:36;;;;;;;7.43;5.63;;;23.90;54.10;;;;;;4971909;28;20448;-92
2021/07/19 09:20:09;;;;;;;8.30;5.77;;;23.90;54.30;;;;;;4971494;28;20451;-91
2021/07/19 09:22:36;;;;;;;10.17;6.20;;;24.30;54.00;;;;;;4966568;28;20421;-93
2021/07/19 09:25:06;;;;;;;8.53;5.33;;;24.30;53.30;;;;;;4957910;29;21058;-93
2021/07/19 09:27:34;;;;;;;7.00;4.57;;;24.40;52.90;;;;;;4973931;28;20457;-93
2021/07/19 09:30:16;;;;;;;5.63;4.30;;;24.30;51.90;;;;;;4974249;28;20510;-92
2021/07/19 09:32:59;;;;;;;7.40;4.80;;;24.20;52.20;;;;;;4961567;28;20443;-92
2021/07/19 09:35:26;;;;;;;7.03;5.10;;;24.50;51.60;;;;;;4956346;29;20432;-92
2021/07/19 09:37:52;;;;;;;5.67;5.17;;;24.60;51.20;;;;;;4956243;29;20428;-93
2021/07/19 09:40:26;;;;;;;7.83;5.03;;;24.50;51.50;;;;;;4957383;28;20455;-92
2021/07/19 09:42:52;;;;;;;5.43;4.50;;;24.20;51.70;;;;;;4961728;28;20555;-92
2021/07/19 09:45:32;;;;;;;7.77;4.83;;;24.10;51.80;;;;;;4977188;28;20471;-92
2021/07/19 09:48:06;;;;;;;9.93;5.87;;;23.90;52.20;;;;;;4971325;28;20527;-93
2021/07/19 09:50:44;;;;;;;5.40;4.90;;;24.00;52.60;;;;;;4956726;29;20438;-92
2021/07/19 09:53:11;;;;;;;8.50;4.87;;;23.90;52.80;;;;;;4961352;29;20456;-93
2021/07/19 09:55:38;;;;;;;8.17;5.10;;;24.20;52.60;;;;;;4961427;29;20499;-92
2021/07/19 09:58:04;;;;;;;7.00;5.20;;;24.20;51.90;;;;;;4965524;28;20581;-92
2021/07/19 10:00:32;;;;;;;7.17;5.77;;;24.20;52.00;;;;;;4960910;28;20438;-93
2021/07/19 10:03:14;;;;;;;7.30;5.70;;;24.20;51.80;;;;;;4968709;28;20419;-92
2021/07/19 10:05:40;;;;;;;10.00;5.47;;;24.40;51.70;;;;;;4971946;28;20440;-92
2021/07/19 10:08:06;;;;;;;7.30;5.57;;;24.50;51.00;;;;;;4978884;28;20471;-91
2021/07/19 10:10:39;;;;;;;5.57;4.60;;;24.60;51.10;;;;;;4980754;28;20424;-92
2021/07/19 10:13:09;;;;;;;9.50;6.57;;;24.80;50.60;;;;;;4976290;28;20412;-92
2021/07/19 10:15:37;;;;;;;8.23;5.40;;;24.60;49.80;;;;;;4966038;28;20426;-93
2021/07/19 10:18:08;;;;;;;8.07;6.23;;;24.50;50.00;;;;;;4968917;28;20459;-92
2021/07/19 10:20:35;;;;;;;9.10;5.40;;;24.40;50.50;;;;;;4970792;28;20417;-93
2021/07/19 10:23:02;;;;;;;7.50;5.23;;;24.30;51.20;;;;;;4968546;28;20447;-93
2021/07/19 10:25:29;;;;;;;10.27;6.80;;;24.30;51.40;;;;;;4968924;28;20432;-93
2021/07/19 10:27:56;;;;;;;7.83;6.10;;;24.50;51.60;;;;;;4966666;28;20427;-92
2021/07/19 10:30:22;;;;;;;7.40;5.73;;;24.60;51.10;;;;;;4967411;28;21040;-93
2021/07/19 10:32:48;;;;;;;8.93;5.70;;;24.60;51.00;;;;;;4966667;28;20432;-93
2021/07/19 10:35:15;;;;;;;8.23;5.80;;;24.70;50.30;;;;;;4964673;28;20495;-93
2021/07/19 10:37:44;;;;;;;10.20;6.00;;;24.90;49.70;;;;;;4964302;28;20428;-93
2021/07/19 10:40:13;;;;;;;6.83;5.80;;;24.70;49.70;;;;;;4964088;28;20448;-93
2021/07/19 10:42:43;;;;;;;9.77;6.57;;;24.60;50.40;;;;;;4962191;28;20427;-94
2021/07/19 10:45:15;;;;;;;7.40;6.60;;;24.90;50.60;;;;;;4961977;28;20555;-92
2021/07/19 10:47:57;;;;;;;7.27;6.00;;;24.90;50.60;;;;;;4963149;28;20443;-92
2021/07/19 10:50:27;;;;;;;13.00;7.13;;;24.80;50.20;;;;;;4964512;28;20490;-93
2021/07/19 10:53:00;;;;;;;8.80;6.40;;;24.80;50.00;;;;;;4964936;28;20417;-92
2021/07/19 10:55:32;;;;;;;7.27;5.90;;;24.90;50.30;;;;;;4964595;28;20776;-93
2021/07/19 10:58:06;;;;;;;10.90;6.53;;;25.10;50.60;;;;;;4964734;28;20426;-93
2021/07/19 11:00:37;;;;;;;8.23;6.70;;;25.40;50.70;;;;;;4962611;28;20517;-93
2021/07/19 11:03:08;;;;;;;6.70;5.97;;;25.70;48.60;;;;;;4963076;28;20939;-93
2021/07/19 11:05:42;;;;;;;8.83;6.70;;;25.50;48.20;;;;;;4963521;29;20417;-93
2021/07/19 11:08:24;;;;;;;7.33;6.00;;;25.40;48.40;;;;;;4963590;29;20438;-92
2021/07/19 11:10:51;;;;;;;7.90;6.43;;;25.30;47.30;;;;;;4966769;29;20500;-93
2021/07/19 11:13:53;;;;;;;7.47;6.10;;;25.10;48.40;;;;;;4965459;28;20424;-92
2021/07/19 11:16:19;;;;;;;9.10;5.97;;;25.30;48.50;;;;;;4965099;29;20419;-93
2021/07/19 11:19:02;;;;;;;8.07;7.10;;;25.40;48.60;;;;;;4964068;28;20456;-92
2021/07/19 11:21:30;;;;;;;8.43;6.00;;;25.50;48.40;;;;;;4965546;29;20179;-92
2021/07/19 11:24:07;;;;;;;9.93;6.70;;;25.80;47.80;;;;;;4964552;28;20482;-93
2021/07/19 11:26:52;;;;;;;8.97;6.40;;;25.90;47.40;;;;;;4964597;29;20461;-93
2021/07/19 11:29:35;;;;;;;8.90;6.73;;;26.00;46.50;;;;;;4963889;28;20623;-93
2021/07/19 11:32:18;;;;;;;7.30;5.87;;;25.90;45.90;;;;;;4965170;29;20420;-93
2021/07/19 11:34:47;;;;;;;9.17;7.40;;;26.10;47.50;;;;;;4967155;28;20425;-93
2021/07/19 11:37:14;;;;;;;11.70;6.80;;;25.90;46.60;;;;;;4966111;28;20424;-92
2021/07/19 11:39:53;;;;;;;9.13;7.53;;;25.70;47.30;;;;;;4965848;28;20451;-93
2021/07/19 11:42:42;;;;;;;10.50;7.03;;;25.60;47.60;;;;;;4979146;28;20400;-92
2021/07/19 11:45:12;;;;;;;7.07;6.27;;;25.80;48.00;;;;;;4972633;28;20495;-91
2021/07/19 11:47:52;;;;;;;9.53;7.70;;;25.80;47.30;;;;;;4980036;28;20492;-91
2021/07/19 11:50:24;;;;;;;10.70;7.07;;;25.80;46.50;;;;;;4971599;28;20460;-93
2021/07/19 11:52:53;;;;;;;8.37;6.80;;;25.60;47.60;;;;;;4963553;29;20422;-94
2021/07/19 11:55:21;;;;;;;7.20;6.03;;;25.90;47.20;;;;;;4964315;28;20458;-93
2021/07/19 11:58:01;;;;;;;7.83;5.90;;;25.80;46.90;;;;;;4965161;28;20930;-92
2021/07/19 12:00:38;;;;;;;6.10;5.60;;;25.80;46.60;;;;;;4962185;29;20428;-92
2021/07/19 12:03:07;;;;;;;7.30;6.07;;;25.60;47.10;;;;;;4962716;28;20421;-93
2021/07/19 12:05:36;;;;;;;6.93;5.77;;;25.60;46.60;;;;;;4963156;28;20451;-93
2021/07/19 12:08:10;;;;;;;8.40;6.60;;;25.60;47.00;;;;;;4963041;28;20417;-92
2021/07/19 12:10:38;;;;;;;9.77;6.93;;;25.90;46.70;;;;;;4977673;28;20437;-93
2021/07/19 12:13:12;;;;;;;7.37;5.33;;;26.10;46.40;;;;;;4981738;28;20416;-93
2021/07/19 12:15:48;;;;;;;7.90;6.47;;;26.10;45.40;;;;;;4982304;28;20407;-93
2021/07/19 12:18:32;;;;;;;10.47;6.10;;;26.00;45.60;;;;;;4986496;28;20426;-93
2021/07/19 12:21:05;;;;;;;8.37;6.40;;;26.00;45.80;;;;;;4998566;28;20430;-93
2021/07/19 12:23:42;;;;;;;10.30;7.47;;;25.80;46.10;;;;;;4998949;28;20466;-93
2021/07/19 12:26:10;;;;;;;9.87;6.77;;;25.90;46.40;;;;;;4998127;28;20447;-93
2021/07/19 12:28:36;;;;;;;11.53;6.43;;;26.10;46.50;;;;;;4985548;28;20482;-93
2021/07/19 12:31:17;;;;;;;9.93;6.73;;;26.20;46.20;;;;;;4984918;28;20433;-93
2021/07/19 12:33:43;;;;;;;10.30;6.03;;;26.30;45.90;;;;;;4984204;28;20415;-93
2021/07/19 12:36:09;;;;;;;7.00;5.30;;;26.10;46.20;;;;;;4983909;28;20430;-93
2021/07/19 12:38:35;;;;;;;6.83;5.47;;;25.90;46.10;;;;;;4988217;28;20431;-93
2021/07/19 12:41:02;;;;;;;6.80;5.40;;;25.60;46.90;;;;;;4986924;28;20416;-93
2021/07/19 12:43:30;;;;;;;7.50;5.50;;;25.80;47.40;;;;;;4971321;28;20576;-93
2021/07/19 12:45:56;;;;;;;13.00;5.60;;;25.90;46.90;;;;;;4981820;28;20427;-93
2021/07/19 12:48:22;;;;;;;7.87;5.47;;;26.00;46.90;;;;;;4981484;28;20529;-94
2021/07/19 12:51:02;;;;;;;9.20;6.30;;;26.10;46.90;;;;;;4982862;28;20828;-93
2021/07/19 12:53:35;;;;;;;7.43;5.97;;;26.10;47.00;;;;;;4981967;28;20423;-93